sensor_id;sensor_type;location;lat;lon;timestamp;temperature;humidity
31747;DHT22;18319;48.974;8.462;2022-10-16T00:00:38;16.30;99.90
31747;DHT22;18319;48.974;8.462;2022-10-16T00:03:06;16.30;99.90
31747;DHT22;18319;48.974;8.462;2022-10-16T00:05:38;16.30;99.90
31747;DHT22;18319;48.974;8.462;2022-10-16T00:08:06;16.40;99.90
31747;DHT22;18319;48.974;8.462;2022-10-16T00:10:33;16.40;99.90
31747;DHT22;18319;48.974;8.462;2022-10-16T00:13:02;16.50;99.90
31747;DHT22;18319;48.974;8.462;2022-10-16T00:15:29;16.40;99.90
31747;DHT22;18319;48.974;8.462;2022-10-16T00:17:56;16.40;99.90
31747;DHT22;18319;48.974;8.462;2022-10-16T00:20:23;16.50;99.90
31747;DHT22;18319;48.974;8.462;2022-10-16T00:22:50;16.50;99.90
31747;DHT22;18319;48.974;8.462;2022-10-16T00:25:16;16.50;99.90
31747;DHT22;18319;48.974;8.462;2022-10-16T00:27:43;16.40;99.90
31747;DHT22;18319;48.974;8.462;2022-10-16T00:30:11;16.40;99.90
31747;DHT22;18319;48.974;8.462;2022-10-16T00:32:38;16.50;99.90
31747;DHT22;18319;48.974;8.462;2022-10-16T00:35:05;16.40;99.90
31747;DHT22;18319;48.974;8.462;2022-10-16T00:37:32;16.40;99.90
31747;DHT22;18319;48.974;8.462;2022-10-16T00:42:27;16.40;99.90
31747;DHT22;18319;48.974;8.462;2022-10-16T00:44:55;16.30;99.90
31747;DHT22;18319;48.974;8.462;2022-10-16T00:47:26;16.30;99.90
31747;DHT22;18319;48.974;8.462;2022-10-16T00:49:58;16.30;99.90
31747;DHT22;18319;48.974;8.462;2022-10-16T00:52:26;16.20;99.90
31747;DHT22;18319;48.974;8.462;2022-10-16T00:54:54;16.20;99.90
31747;DHT22;18319;48.974;8.462;2022-10-16T00:57:21;16.20;99.90
31747;DHT22;18319;48.974;8.462;2022-10-16T00:59:48;16.20;99.90
31747;DHT22;18319;48.974;8.462;2022-10-16T01:02:16;16.20;99.90
31747;DHT22;18319;48.974;8.462;2022-10-16T01:04:46;16.30;99.90
31747;DHT22;18319;48.974;8.462;2022-10-16T01:07:24;16.40;99.90
31747;DHT22;18319;48.974;8.462;2022-10-16T01:10:01;16.30;99.90
31747;DHT22;18319;48.974;8.462;2022-10-16T01:12:37;16.40;99.90
31747;DHT22;18319;48.974;8.462;2022-10-16T01:15:10;16.40;99.90
31747;DHT22;18319;48.974;8.462;2022-10-16T01:17:43;16.40;99.90
31747;DHT22;18319;48.974;8.462;2022-10-16T01:20:20;16.40;99.90
31747;DHT22;18319;48.974;8.462;2022-10-16T01:22:58;16.50;99.90
31747;DHT22;18319;48.974;8.462;2022-10-16T01:25:49;16.40;99.90
31747;DHT22;18319;48.974;8.462;2022-10-16T01:28:23;16.30;99.90
31747;DHT22;18319;48.974;8.462;2022-10-16T01:30:56;16.30;99.90
31747;DHT22;18319;48.974;8.462;2022-10-16T01:33:30;16.30;99.90
31747;DHT22;18319;48.974;8.462;2022-10-16T01:36:03;16.20;99.90
31747;DHT22;18319;48.974;8.462;2022-10-16T01:38:34;16.30;99.90
31747;DHT22;18319;48.974;8.462;2022-10-16T01:41:06;16.30;99.90
31747;DHT22;18319;48.974;8.462;2022-10-16T01:43:37;16.20;99.90
31747;DHT22;18319;48.974;8.462;2022-10-16T01:46:05;16.20;99.90
31747;DHT22;18319;48.974;8.462;2022-10-16T01:48:34;16.20;99.90
31747;DHT22;18319;48.974;8.462;2022-10-16T01:51:05;16.20;99.90
31747;DHT22;18319;48.974;8.462;2022-10-16T01:53:33;16.20;99.90
31747;DHT22;18319;48.974;8.462;2022-10-16T01:56:02;16.20;99.90
31747;DHT22;18319;48.974;8.462;2022-10-16T01:58:37;16.20;99.90
31747;DHT22;18319;48.974;8.462;2022-10-16T02:01:07;16.20;99.90
31747;DHT22;18319;48.974;8.462;2022-10-16T02:03:36;16.20;99.90
31747;DHT22;18319;48.974;8.462;2022-10-16T02:06:04;16.10;99.90
31747;DHT22;18319;48.974;8.462;2022-10-16T02:08:31;16.20;99.90
31747;DHT22;18319;48.974;8.462;2022-10-16T02:10:59;16.10;99.90
31747;DHT22;18319;48.974;8.462;2022-10-16T02:13:29;16.20;99.90
31747;DHT22;18319;48.974;8.462;2022-10-16T02:15:58;16.00;99.90
31747;DHT22;18319;48.974;8.462;2022-10-16T02:18:26;16.00;99.90
31747;DHT22;18319;48.974;8.462;2022-10-16T02:20:58;16.00;99.90
31747;DHT22;18319;48.974;8.462;2022-10-16T02:23:32;16.00;99.90
31747;DHT22;18319;48.974;8.462;2022-10-16T02:26:03;15.80;99.90
31747;DHT22;18319;48.974;8.462;2022-10-16T02:28:35;15.90;99.90
31747;DHT22;18319;48.974;8.462;2022-10-16T02:31:09;15.80;99.90
31747;DHT22;18319;48.974;8.462;2022-10-16T02:33:39;15.80;99.90
31747;DHT22;18319;48.974;8.462;2022-10-16T02:36:07;15.80;99.90
31747;DHT22;18319;48.974;8.462;2022-10-16T02:38:34;15.70;99.90
31747;DHT22;18319;48.974;8.462;2022-10-16T02:41:04;15.70;99.90
31747;DHT22;18319;48.974;8.462;2022-10-16T02:43:31;15.80;99.90
31747;DHT22;18319;48.974;8.462;2022-10-16T02:45:59;15.70;99.90
31747;DHT22;18319;48.974;8.462;2022-10-16T02:48:27;15.60;99.90
31747;DHT22;18319;48.974;8.462;2022-10-16T02:50:53;15.60;99.90
31747;DHT22;18319;48.974;8.462;2022-10-16T02:53:20;15.70;99.90
31747;DHT22;18319;48.974;8.462;2022-10-16T02:55:47;15.60;99.90
31747;DHT22;18319;48.974;8.462;2022-10-16T02:58:14;15.50;99.90
31747;DHT22;18319;48.974;8.462;2022-10-16T03:00:41;15.60;99.90
31747;DHT22;18319;48.974;8.462;2022-10-16T03:03:07;15.60;99.90
31747;DHT22;18319;48.974;8.462;2022-10-16T03:05:36;15.50;99.90
31747;DHT22;18319;48.974;8.462;2022-10-16T03:08:02;15.50;99.90
31747;DHT22;18319;48.974;8.462;2022-10-16T03:10:29;15.50;99.90
31747;DHT22;18319;48.974;8.462;2022-10-16T03:12:56;15.50;99.90
31747;DHT22;18319;48.974;8.462;2022-10-16T03:15:23;15.60;99.90
31747;DHT22;18319;48.974;8.462;2022-10-16T03:17:49;15.60;99.90
31747;DHT22;18319;48.974;8.462;2022-10-16T03:20:16;15.60;99.90
31747;DHT22;18319;48.974;8.462;2022-10-16T03:22:44;15.50;99.90
31747;DHT22;18319;48.974;8.462;2022-10-16T03:25:11;15.50;99.90
31747;DHT22;18319;48.974;8.462;2022-10-16T03:27:38;15.50;99.90
31747;DHT22;18319;48.974;8.462;2022-10-16T03:30:05;15.40;99.90
31747;DHT22;18319;48.974;8.462;2022-10-16T03:32:32;15.50;99.90
31747;DHT22;18319;48.974;8.462;2022-10-16T03:34:59;15.40;99.90
31747;DHT22;18319;48.974;8.462;2022-10-16T03:37:26;15.50;99.90
31747;DHT22;18319;48.974;8.462;2022-10-16T03:39:54;15.40;99.90
31747;DHT22;18319;48.974;8.462;2022-10-16T03:42:20;15.40;99.90
31747;DHT22;18319;48.974;8.462;2022-10-16T03:44:47;15.40;99.90
31747;DHT22;18319;48.974;8.462;2022-10-16T03:47:14;15.40;99.90
31747;DHT22;18319;48.974;8.462;2022-10-16T03:49:41;15.40;99.90
31747;DHT22;18319;48.974;8.462;2022-10-16T03:52:07;15.40;99.90
31747;DHT22;18319;48.974;8.462;2022-10-16T03:54:34;15.40;99.90
31747;DHT22;18319;48.974;8.462;2022-10-16T03:57:02;15.40;99.90
31747;DHT22;18319;48.974;8.462;2022-10-16T03:59:29;15.50;99.90
31747;DHT22;18319;48.974;8.462;2022-10-16T04:01:56;15.50;99.90
31747;DHT22;18319;48.974;8.462;2022-10-16T04:04:22;15.40;99.90
31747;DHT22;18319;48.974;8.462;2022-10-16T04:06:50;15.40;99.90
31747;DHT22;18319;48.974;8.462;2022-10-16T04:09:17;15.40;99.90
31747;DHT22;18319;48.974;8.462;2022-10-16T04:11:43;15.30;99.90
31747;DHT22;18319;48.974;8.462;2022-10-16T04:14:12;15.50;99.90
31747;DHT22;18319;48.974;8.462;2022-10-16T04:16:38;15.30;99.90
31747;DHT22;18319;48.974;8.462;2022-10-16T04:19:05;15.30;99.90
31747;DHT22;18319;48.974;8.462;2022-10-16T04:21:32;15.30;99.90
31747;DHT22;18319;48.974;8.462;2022-10-16T04:23:58;15.20;99.90
31747;DHT22;18319;48.974;8.462;2022-10-16T04:26:25;15.30;99.90
31747;DHT22;18319;48.974;8.462;2022-10-16T04:28:52;15.20;99.90
31747;DHT22;18319;48.974;8.462;2022-10-16T04:31:20;15.20;99.90
31747;DHT22;18319;48.974;8.462;2022-10-16T04:33:47;15.20;99.90
31747;DHT22;18319;48.974;8.462;2022-10-16T04:36:14;15.20;99.90
31747;DHT22;18319;48.974;8.462;2022-10-16T04:38:40;15.30;99.90
31747;DHT22;18319;48.974;8.462;2022-10-16T04:41:07;15.30;99.90
31747;DHT22;18319;48.974;8.462;2022-10-16T04:43:34;15.30;99.90
31747;DHT22;18319;48.974;8.462;2022-10-16T04:46:01;15.30;99.90
31747;DHT22;18319;48.974;8.462;2022-10-16T04:48:31;15.30;99.90
31747;DHT22;18319;48.974;8.462;2022-10-16T04:50:58;15.30;99.90
31747;DHT22;18319;48.974;8.462;2022-10-16T04:53:25;15.20;99.90
31747;DHT22;18319;48.974;8.462;2022-10-16T04:55:52;15.20;99.90
31747;DHT22;18319;48.974;8.462;2022-10-16T04:58:19;15.20;99.90
31747;DHT22;18319;48.974;8.462;2022-10-16T05:00:46;15.20;99.90
31747;DHT22;18319;48.974;8.462;2022-10-16T05:03:12;15.20;99.90
31747;DHT22;18319;48.974;8.462;2022-10-16T05:05:44;15.20;99.90
31747;DHT22;18319;48.974;8.462;2022-10-16T05:08:12;15.20;99.90
31747;DHT22;18319;48.974;8.462;2022-10-16T05:10:39;15.20;99.90
31747;DHT22;18319;48.974;8.462;2022-10-16T05:13:07;15.20;99.90
31747;DHT22;18319;48.974;8.462;2022-10-16T05:15:33;15.20;99.90
31747;DHT22;18319;48.974;8.462;2022-10-16T05:18:00;15.20;99.90
31747;DHT22;18319;48.974;8.462;2022-10-16T05:20:27;15.30;99.90
31747;DHT22;18319;48.974;8.462;2022-10-16T05:22:55;15.20;99.90
31747;DHT22;18319;48.974;8.462;2022-10-16T05:25:22;15.20;99.90
31747;DHT22;18319;48.974;8.462;2022-10-16T05:27:49;15.20;99.90
31747;DHT22;18319;48.974;8.462;2022-10-16T05:30:16;15.20;99.90
31747;DHT22;18319;48.974;8.462;2022-10-16T05:32:46;15.20;99.90
31747;DHT22;18319;48.974;8.462;2022-10-16T05:35:14;15.20;99.90
31747;DHT22;18319;48.974;8.462;2022-10-16T05:37:41;15.20;99.90
31747;DHT22;18319;48.974;8.462;2022-10-16T05:40:10;15.20;99.90
31747;DHT22;18319;48.974;8.462;2022-10-16T05:42:38;15.20;99.90
31747;DHT22;18319;48.974;8.462;2022-10-16T05:45:06;15.20;99.90
31747;DHT22;18319;48.974;8.462;2022-10-16T05:47:33;15.20;99.90
31747;DHT22;18319;48.974;8.462;2022-10-16T05:49:59;15.20;99.90
31747;DHT22;18319;48.974;8.462;2022-10-16T05:52:27;15.20;99.90
31747;DHT22;18319;48.974;8.462;2022-10-16T05:54:53;15.20;99.90
31747;DHT22;18319;48.974;8.462;2022-10-16T05:57:21;15.20;99.90
31747;DHT22;18319;48.974;8.462;2022-10-16T05:59:48;15.20;99.90
31747;DHT22;18319;48.974;8.462;2022-10-16T06:02:15;15.10;99.90
31747;DHT22;18319;48.974;8.462;2022-10-16T06:04:42;15.10;99.90
31747;DHT22;18319;48.974;8.462;2022-10-16T06:07:09;15.10;99.90
31747;DHT22;18319;48.974;8.462;2022-10-16T06:09:36;15.20;99.90
31747;DHT22;18319;48.974;8.462;2022-10-16T06:12:03;15.10;99.90
31747;DHT22;18319;48.974;8.462;2022-10-16T06:14:31;15.10;99.90
31747;DHT22;18319;48.974;8.462;2022-10-16T06:16:58;15.10;99.90
31747;DHT22;18319;48.974;8.462;2022-10-16T06:19:25;15.10;99.90
31747;DHT22;18319;48.974;8.462;2022-10-16T06:21:52;15.20;99.90
31747;DHT22;18319;48.974;8.462;2022-10-16T06:24:19;15.20;99.90
31747;DHT22;18319;48.974;8.462;2022-10-16T06:26:45;15.20;99.90
31747;DHT22;18319;48.974;8.462;2022-10-16T06:29:12;15.30;99.90
31747;DHT22;18319;48.974;8.462;2022-10-16T06:31:40;15.30;99.90
31747;DHT22;18319;48.974;8.462;2022-10-16T06:34:09;15.30;99.90
31747;DHT22;18319;48.974;8.462;2022-10-16T06:36:37;15.30;99.90
31747;DHT22;18319;48.974;8.462;2022-10-16T06:39:04;15.40;99.90
31747;DHT22;18319;48.974;8.462;2022-10-16T06:41:32;15.50;99.90
31747;DHT22;18319;48.974;8.462;2022-10-16T06:43:59;15.40;99.90
31747;DHT22;18319;48.974;8.462;2022-10-16T06:46:26;15.50;99.90
31747;DHT22;18319;48.974;8.462;2022-10-16T06:48:54;15.50;99.90
31747;DHT22;18319;48.974;8.462;2022-10-16T06:51:22;15.60;99.90
31747;DHT22;18319;48.974;8.462;2022-10-16T06:53:51;15.60;99.90
31747;DHT22;18319;48.974;8.462;2022-10-16T06:56:20;15.70;99.90
31747;DHT22;18319;48.974;8.462;2022-10-16T06:58:47;15.70;99.90
31747;DHT22;18319;48.974;8.462;2022-10-16T07:01:15;15.80;99.90
31747;DHT22;18319;48.974;8.462;2022-10-16T07:03:44;15.80;99.90
31747;DHT22;18319;48.974;8.462;2022-10-16T07:06:14;15.90;99.90
31747;DHT22;18319;48.974;8.462;2022-10-16T07:08:43;16.00;99.90
31747;DHT22;18319;48.974;8.462;2022-10-16T07:11:12;16.10;99.90
31747;DHT22;18319;48.974;8.462;2022-10-16T07:13:40;16.10;99.90
31747;DHT22;18319;48.974;8.462;2022-10-16T07:16:08;16.20;99.90
31747;DHT22;18319;48.974;8.462;2022-10-16T07:18:36;16.40;99.90
31747;DHT22;18319;48.974;8.462;2022-10-16T07:21:05;16.50;99.90
31747;DHT22;18319;48.974;8.462;2022-10-16T07:23:34;16.70;99.90
31747;DHT22;18319;48.974;8.462;2022-10-16T07:26:01;16.60;99.90
31747;DHT22;18319;48.974;8.462;2022-10-16T07:28:28;16.60;99.90
31747;DHT22;18319;48.974;8.462;2022-10-16T07:30:54;16.60;99.90
31747;DHT22;18319;48.974;8.462;2022-10-16T07:33:21;16.70;99.90
31747;DHT22;18319;48.974;8.462;2022-10-16T07:35:49;16.80;99.90
31747;DHT22;18319;48.974;8.462;2022-10-16T07:38:16;16.70;99.90
31747;DHT22;18319;48.974;8.462;2022-10-16T07:40:44;16.80;99.90
31747;DHT22;18319;48.974;8.462;2022-10-16T07:43:11;16.80;99.90
31747;DHT22;18319;48.974;8.462;2022-10-16T07:45:46;16.80;99.90
31747;DHT22;18319;48.974;8.462;2022-10-16T07:48:13;16.80;99.90
31747;DHT22;18319;48.974;8.462;2022-10-16T07:50:40;17.00;99.90
31747;DHT22;18319;48.974;8.462;2022-10-16T07:53:07;17.00;99.90
31747;DHT22;18319;48.974;8.462;2022-10-16T07:55:34;17.00;99.90
31747;DHT22;18319;48.974;8.462;2022-10-16T07:58:02;17.20;99.90
31747;DHT22;18319;48.974;8.462;2022-10-16T08:00:30;17.20;99.90
31747;DHT22;18319;48.974;8.462;2022-10-16T08:02:56;17.10;99.90
31747;DHT22;18319;48.974;8.462;2022-10-16T08:05:25;17.10;99.90
31747;DHT22;18319;48.974;8.462;2022-10-16T08:07:52;17.20;99.90
31747;DHT22;18319;48.974;8.462;2022-10-16T08:10:21;17.20;99.90
31747;DHT22;18319;48.974;8.462;2022-10-16T08:12:49;17.30;99.90
31747;DHT22;18319;48.974;8.462;2022-10-16T08:15:17;17.40;99.90
31747;DHT22;18319;48.974;8.462;2022-10-16T08:17:44;17.50;99.90
31747;DHT22;18319;48.974;8.462;2022-10-16T08:20:11;17.60;99.90
31747;DHT22;18319;48.974;8.462;2022-10-16T08:22:38;17.70;99.90
31747;DHT22;18319;48.974;8.462;2022-10-16T08:25:05;17.90;99.90
31747;DHT22;18319;48.974;8.462;2022-10-16T08:27:32;18.10;99.90
31747;DHT22;18319;48.974;8.462;2022-10-16T08:29:59;18.10;99.90
31747;DHT22;18319;48.974;8.462;2022-10-16T08:32:27;18.10;99.90
31747;DHT22;18319;48.974;8.462;2022-10-16T08:34:54;18.10;99.90
31747;DHT22;18319;48.974;8.462;2022-10-16T08:37:21;18.20;99.90
31747;DHT22;18319;48.974;8.462;2022-10-16T08:39:48;18.10;99.90
31747;DHT22;18319;48.974;8.462;2022-10-16T08:42:21;18.30;99.90
31747;DHT22;18319;48.974;8.462;2022-10-16T08:45:09;18.40;99.90
31747;DHT22;18319;48.974;8.462;2022-10-16T08:47:48;18.60;99.90
31747;DHT22;18319;48.974;8.462;2022-10-16T08:50:21;18.70;99.90
31747;DHT22;18319;48.974;8.462;2022-10-16T08:52:49;18.60;99.90
31747;DHT22;18319;48.974;8.462;2022-10-16T08:55:27;18.70;99.90
31747;DHT22;18319;48.974;8.462;2022-10-16T08:57:55;18.90;99.90
31747;DHT22;18319;48.974;8.462;2022-10-16T09:00:22;19.10;99.90
31747;DHT22;18319;48.974;8.462;2022-10-16T09:02:53;19.30;99.90
31747;DHT22;18319;48.974;8.462;2022-10-16T09:05:49;19.30;99.90
31747;DHT22;18319;48.974;8.462;2022-10-16T09:08:24;19.40;99.90
31747;DHT22;18319;48.974;8.462;2022-10-16T09:10:56;19.50;99.90
31747;DHT22;18319;48.974;8.462;2022-10-16T09:13:29;19.70;99.90
31747;DHT22;18319;48.974;8.462;2022-10-16T09:16:08;19.70;99.90
31747;DHT22;18319;48.974;8.462;2022-10-16T09:18:40;19.80;99.90
31747;DHT22;18319;48.974;8.462;2022-10-16T09:21:15;19.70;99.90
31747;DHT22;18319;48.974;8.462;2022-10-16T09:23:45;19.70;99.90
31747;DHT22;18319;48.974;8.462;2022-10-16T09:26:13;19.70;99.90
31747;DHT22;18319;48.974;8.462;2022-10-16T09:28:41;19.70;99.90
31747;DHT22;18319;48.974;8.462;2022-10-16T09:31:13;19.70;99.90
31747;DHT22;18319;48.974;8.462;2022-10-16T09:33:43;19.60;99.90
31747;DHT22;18319;48.974;8.462;2022-10-16T09:36:13;19.40;99.90
31747;DHT22;18319;48.974;8.462;2022-10-16T09:38:40;19.20;99.90
31747;DHT22;18319;48.974;8.462;2022-10-16T09:41:15;19.10;99.90
31747;DHT22;18319;48.974;8.462;2022-10-16T09:43:47;19.00;99.90
31747;DHT22;18319;48.974;8.462;2022-10-16T09:46:25;19.00;99.90
31747;DHT22;18319;48.974;8.462;2022-10-16T09:48:55;18.90;99.90
31747;DHT22;18319;48.974;8.462;2022-10-16T09:51:24;19.10;99.90
31747;DHT22;18319;48.974;8.462;2022-10-16T09:53:55;19.10;99.90
31747;DHT22;18319;48.974;8.462;2022-10-16T09:56:23;19.10;99.90
31747;DHT22;18319;48.974;8.462;2022-10-16T09:58:51;19.10;99.90
31747;DHT22;18319;48.974;8.462;2022-10-16T10:01:19;19.20;99.90
31747;DHT22;18319;48.974;8.462;2022-10-16T10:03:46;19.30;99.90
31747;DHT22;18319;48.974;8.462;2022-10-16T10:06:21;19.30;99.90
31747;DHT22;18319;48.974;8.462;2022-10-16T10:08:56;19.40;99.90
31747;DHT22;18319;48.974;8.462;2022-10-16T10:11:50;19.50;99.90
31747;DHT22;18319;48.974;8.462;2022-10-16T10:14:26;19.50;99.90
31747;DHT22;18319;48.974;8.462;2022-10-16T10:17:09;19.50;99.90
31747;DHT22;18319;48.974;8.462;2022-10-16T10:19:40;19.20;99.90
31747;DHT22;18319;48.974;8.462;2022-10-16T10:22:25;19.20;99.90
31747;DHT22;18319;48.974;8.462;2022-10-16T10:24:59;18.90;99.90
31747;DHT22;18319;48.974;8.462;2022-10-16T10:27:34;18.90;99.90
31747;DHT22;18319;48.974;8.462;2022-10-16T10:30:09;18.70;99.90
31747;DHT22;18319;48.974;8.462;2022-10-16T10:32:48;18.50;99.90
31747;DHT22;18319;48.974;8.462;2022-10-16T10:35:22;18.50;99.90
31747;DHT22;18319;48.974;8.462;2022-10-16T10:38:05;18.40;99.90
31747;DHT22;18319;48.974;8.462;2022-10-16T10:40:43;18.50;99.90
31747;DHT22;18319;48.974;8.462;2022-10-16T10:43:22;18.60;99.90
31747;DHT22;18319;48.974;8.462;2022-10-16T10:45:57;18.60;99.90
31747;DHT22;18319;48.974;8.462;2022-10-16T10:48:48;18.70;99.90
31747;DHT22;18319;48.974;8.462;2022-10-16T10:51:22;18.60;99.90
31747;DHT22;18319;48.974;8.462;2022-10-16T10:53:57;18.50;99.90
31747;DHT22;18319;48.974;8.462;2022-10-16T10:56:45;18.50;99.90
31747;DHT22;18319;48.974;8.462;2022-10-16T10:59:32;18.60;99.90
31747;DHT22;18319;48.974;8.462;2022-10-16T11:02:10;18.70;99.90
31747;DHT22;18319;48.974;8.462;2022-10-16T11:07:38;19.10;99.90
31747;DHT22;18319;48.974;8.462;2022-10-16T11:10:12;19.40;99.90
31747;DHT22;18319;48.974;8.462;2022-10-16T11:12:42;19.70;99.90
31747;DHT22;18319;48.974;8.462;2022-10-16T11:15:15;19.80;99.90
31747;DHT22;18319;48.974;8.462;2022-10-16T11:17:47;20.10;99.90
31747;DHT22;18319;48.974;8.462;2022-10-16T11:20:19;20.40;99.90
31747;DHT22;18319;48.974;8.462;2022-10-16T11:22:50;20.60;99.90
31747;DHT22;18319;48.974;8.462;2022-10-16T11:25:21;20.80;99.90
31747;DHT22;18319;48.974;8.462;2022-10-16T11:27:51;21.00;99.90
31747;DHT22;18319;48.974;8.462;2022-10-16T11:30:22;21.10;99.90
31747;DHT22;18319;48.974;8.462;2022-10-16T11:33:22;21.20;99.90
31747;DHT22;18319;48.974;8.462;2022-10-16T11:35:54;21.30;99.90
31747;DHT22;18319;48.974;8.462;2022-10-16T11:38:27;21.40;99.90
31747;DHT22;18319;48.974;8.462;2022-10-16T11:41:01;21.70;99.90
31747;DHT22;18319;48.974;8.462;2022-10-16T11:43:34;21.70;99.90
31747;DHT22;18319;48.974;8.462;2022-10-16T11:46:09;21.80;99.90
31747;DHT22;18319;48.974;8.462;2022-10-16T11:48:41;21.90;99.90
31747;DHT22;18319;48.974;8.462;2022-10-16T11:51:16;21.90;99.90
31747;DHT22;18319;48.974;8.462;2022-10-16T11:53:51;22.00;99.90
31747;DHT22;18319;48.974;8.462;2022-10-16T11:56:21;22.10;99.90
31747;DHT22;18319;48.974;8.462;2022-10-16T11:58:54;21.90;99.90
31747;DHT22;18319;48.974;8.462;2022-10-16T12:01:30;21.90;99.90
31747;DHT22;18319;48.974;8.462;2022-10-16T12:04:14;21.90;99.90
31747;DHT22;18319;48.974;8.462;2022-10-16T12:06:46;21.80;99.90
31747;DHT22;18319;48.974;8.462;2022-10-16T12:09:17;21.80;99.90
31747;DHT22;18319;48.974;8.462;2022-10-16T12:11:47;21.50;99.90
31747;DHT22;18319;48.974;8.462;2022-10-16T12:14:36;21.40;99.90
31747;DHT22;18319;48.974;8.462;2022-10-16T12:17:22;21.40;99.90
31747;DHT22;18319;48.974;8.462;2022-10-16T12:19:58;21.40;99.90
31747;DHT22;18319;48.974;8.462;2022-10-16T12:22:28;21.70;99.90
31747;DHT22;18319;48.974;8.462;2022-10-16T12:24:55;21.60;99.90
31747;DHT22;18319;48.974;8.462;2022-10-16T12:27:27;21.60;99.90
31747;DHT22;18319;48.974;8.462;2022-10-16T12:29:56;21.70;99.90
31747;DHT22;18319;48.974;8.462;2022-10-16T12:32:28;21.70;99.90
31747;DHT22;18319;48.974;8.462;2022-10-16T12:34:56;21.60;99.90
31747;DHT22;18319;48.974;8.462;2022-10-16T12:37:25;21.50;99.90
31747;DHT22;18319;48.974;8.462;2022-10-16T12:39:54;21.50;99.90
31747;DHT22;18319;48.974;8.462;2022-10-16T12:42:32;21.40;99.90
31747;DHT22;18319;48.974;8.462;2022-10-16T12:45:00;21.40;99.90
31747;DHT22;18319;48.974;8.462;2022-10-16T12:47:46;21.40;99.90
31747;DHT22;18319;48.974;8.462;2022-10-16T12:50:29;21.60;99.90
31747;DHT22;18319;48.974;8.462;2022-10-16T12:52:57;21.50;99.90
31747;DHT22;18319;48.974;8.462;2022-10-16T12:55:24;21.60;99.90
31747;DHT22;18319;48.974;8.462;2022-10-16T12:58:18;21.70;99.90
31747;DHT22;18319;48.974;8.462;2022-10-16T13:00:53;21.70;99.90
31747;DHT22;18319;48.974;8.462;2022-10-16T13:06:20;21.70;99.90
31747;DHT22;18319;48.974;8.462;2022-10-16T13:09:09;21.70;99.90
31747;DHT22;18319;48.974;8.462;2022-10-16T13:11:52;21.60;99.90
31747;DHT22;18319;48.974;8.462;2022-10-16T13:17:37;21.30;99.90
31747;DHT22;18319;48.974;8.462;2022-10-16T13:20:12;21.20;99.90
31747;DHT22;18319;48.974;8.462;2022-10-16T13:22:49;21.00;99.90
31747;DHT22;18319;48.974;8.462;2022-10-16T13:25:23;20.90;99.90
31747;DHT22;18319;48.974;8.462;2022-10-16T13:27:56;21.00;99.90
31747;DHT22;18319;48.974;8.462;2022-10-16T13:30:26;21.00;99.90
31747;DHT22;18319;48.974;8.462;2022-10-16T13:33:00;21.20;99.90
31747;DHT22;18319;48.974;8.462;2022-10-16T13:35:29;21.10;99.90
31747;DHT22;18319;48.974;8.462;2022-10-16T13:38:04;21.10;99.90
31747;DHT22;18319;48.974;8.462;2022-10-16T13:40:31;21.20;99.90
31747;DHT22;18319;48.974;8.462;2022-10-16T13:43:00;21.20;99.90
31747;DHT22;18319;48.974;8.462;2022-10-16T13:45:28;21.00;99.90
31747;DHT22;18319;48.974;8.462;2022-10-16T13:48:02;21.00;99.90
31747;DHT22;18319;48.974;8.462;2022-10-16T13:50:29;21.00;99.90
31747;DHT22;18319;48.974;8.462;2022-10-16T13:53:04;20.80;99.90
31747;DHT22;18319;48.974;8.462;2022-10-16T13:55:31;20.70;99.90
31747;DHT22;18319;48.974;8.462;2022-10-16T13:58:05;20.60;99.90
31747;DHT22;18319;48.974;8.462;2022-10-16T14:00:34;20.60;99.90
31747;DHT22;18319;48.974;8.462;2022-10-16T14:03:03;20.60;99.90
31747;DHT22;18319;48.974;8.462;2022-10-16T14:05:31;20.40;99.90
31747;DHT22;18319;48.974;8.462;2022-10-16T14:07:59;20.30;99.90
31747;DHT22;18319;48.974;8.462;2022-10-16T14:10:27;20.30;99.90
31747;DHT22;18319;48.974;8.462;2022-10-16T14:12:57;20.20;99.90
31747;DHT22;18319;48.974;8.462;2022-10-16T14:15:25;20.20;99.90
31747;DHT22;18319;48.974;8.462;2022-10-16T14:17:53;20.00;99.90
31747;DHT22;18319;48.974;8.462;2022-10-16T14:20:23;19.90;99.90
31747;DHT22;18319;48.974;8.462;2022-10-16T14:22:59;19.90;99.90
31747;DHT22;18319;48.974;8.462;2022-10-16T14:25:27;19.90;99.90
31747;DHT22;18319;48.974;8.462;2022-10-16T14:28:00;20.00;99.90
31747;DHT22;18319;48.974;8.462;2022-10-16T14:30:28;20.20;99.90
31747;DHT22;18319;48.974;8.462;2022-10-16T14:32:57;20.30;99.90
31747;DHT22;18319;48.974;8.462;2022-10-16T14:35:27;20.60;99.90
31747;DHT22;18319;48.974;8.462;2022-10-16T14:37:56;20.50;99.90
31747;DHT22;18319;48.974;8.462;2022-10-16T14:40:25;20.60;99.90
31747;DHT22;18319;48.974;8.462;2022-10-16T14:42:53;20.50;99.90
31747;DHT22;18319;48.974;8.462;2022-10-16T14:45:21;20.40;99.90
31747;DHT22;18319;48.974;8.462;2022-10-16T14:47:50;20.20;99.90
31747;DHT22;18319;48.974;8.462;2022-10-16T14:50:20;20.10;99.90
31747;DHT22;18319;48.974;8.462;2022-10-16T14:52:47;20.10;99.90
31747;DHT22;18319;48.974;8.462;2022-10-16T14:55:14;20.10;99.90
31747;DHT22;18319;48.974;8.462;2022-10-16T14:57:43;20.10;99.90
31747;DHT22;18319;48.974;8.462;2022-10-16T15:00:14;20.10;99.90
31747;DHT22;18319;48.974;8.462;2022-10-16T15:02:42;20.10;99.90
31747;DHT22;18319;48.974;8.462;2022-10-16T15:05:15;19.90;99.90
31747;DHT22;18319;48.974;8.462;2022-10-16T15:07:44;19.90;99.90
31747;DHT22;18319;48.974;8.462;2022-10-16T15:10:11;19.70;99.90
31747;DHT22;18319;48.974;8.462;2022-10-16T15:12:38;19.70;99.90
31747;DHT22;18319;48.974;8.462;2022-10-16T15:15:25;19.60;99.90
31747;DHT22;18319;48.974;8.462;2022-10-16T15:17:55;19.50;99.90
31747;DHT22;18319;48.974;8.462;2022-10-16T15:20:23;19.40;99.90
31747;DHT22;18319;48.974;8.462;2022-10-16T15:22:51;19.30;99.90
31747;DHT22;18319;48.974;8.462;2022-10-16T15:25:29;19.20;99.90
31747;DHT22;18319;48.974;8.462;2022-10-16T15:27:56;19.30;99.90
31747;DHT22;18319;48.974;8.462;2022-10-16T15:30:23;19.30;99.90
31747;DHT22;18319;48.974;8.462;2022-10-16T15:32:50;19.20;99.90
31747;DHT22;18319;48.974;8.462;2022-10-16T15:35:16;19.40;99.90
31747;DHT22;18319;48.974;8.462;2022-10-16T15:37:43;19.20;99.90
31747;DHT22;18319;48.974;8.462;2022-10-16T15:40:12;19.20;99.90
31747;DHT22;18319;48.974;8.462;2022-10-16T15:42:38;19.20;99.90
31747;DHT22;18319;48.974;8.462;2022-10-16T15:45:06;19.20;99.90
31747;DHT22;18319;48.974;8.462;2022-10-16T15:47:33;19.20;99.90
31747;DHT22;18319;48.974;8.462;2022-10-16T15:49:59;19.00;99.90
31747;DHT22;18319;48.974;8.462;2022-10-16T15:52:26;19.00;99.90
31747;DHT22;18319;48.974;8.462;2022-10-16T15:54:54;18.80;99.90
31747;DHT22;18319;48.974;8.462;2022-10-16T15:57:22;18.90;99.90
31747;DHT22;18319;48.974;8.462;2022-10-16T15:59:49;18.80;99.90